Time;durP1;ratioP1;P1;durP2;ratioP2;P2;SDS_P1;SDS_P2;PMS_P1;PMS_P2;Temp;Humidity;BMP_temperature;BMP_pressure;BME280_temperature;BME280_humidity;BME280_pressure;Samples;Min_cycle;Max_cycle;Signal;HPM_P1;HPM_P2
2022/10/11 00:01:02;;;;;;;21.45;7.00;;;;;;;12.54;100.00;99082.09;4307797;33;20432;-69
2022/10/11 00:03:35;;;;;;;12.15;7.18;;;;;;;12.42;100.00;99093.09;4311840;33;20452;-68
2022/10/11 00:06:02;;;;;;;10.35;7.35;;;;;;;12.41;100.00;99048.25;4311579;33;20108;-69
2022/10/11 00:08:29;;;;;;;13.95;7.55;;;;;;;12.52;100.00;99092.31;4311050;33;20181;-69
2022/10/11 00:11:01;;;;;;;14.25;7.12;;;;;;;12.76;100.00;99094.63;4309327;33;20053;-71
2022/10/11 00:13:28;;;;;;;;;;;;;;;12.71;100.00;99095.41;4281426;33;20033;-70
2022/10/11 00:15:55;;;;;;;11.25;6.32;;;;;;;12.72;100.00;99092.44;4251844;33;19977;-69
2022/10/11 00:18:22;;;;;;;14.05;6.30;;;;;;;12.77;100.00;99093.56;4253231;33;20105;-69
2022/10/11 00:20:48;;;;;;;14.63;6.62;;;;;;;12.59;100.00;99044.31;4223519;33;20075;-70
2022/10/11 00:23:15;;;;;;;11.93;7.62;;;;;;;12.71;100.00;99090.81;4224947;33;20806;-69
2022/10/11 00:25:42;;;;;;;10.05;6.55;;;;;;;12.89;100.00;99091.44;4196971;34;20081;-70
2022/10/11 00:28:08;;;;;;;17.92;7.25;;;;;;;12.76;100.00;99081.13;4197809;34;20061;-69
2022/10/11 00:30:34;;;;;;;17.67;7.47;;;;;;;12.83;100.00;99065.50;4191917;34;20115;-73
2022/10/11 00:33:01;;;;;;;13.20;7.37;;;;;;;13.08;100.00;99089.91;4182096;34;20064;-70
2022/10/11 00:35:28;;;;;;;11.63;6.50;;;;;;;12.94;100.00;99090.66;4169722;34;20472;-69
2022/10/11 00:37:55;;;;;;;13.13;7.72;;;;;;;12.84;100.00;99104.94;4179138;34;20028;-70
2022/10/11 00:40:22;;;;;;;13.00;7.53;;;;;;;12.95;100.00;99095.00;4190487;34;20062;-71
2022/10/11 00:42:49;;;;;;;16.58;8.18;;;;;;;12.59;100.00;99052.41;4183675;34;20036;-70
2022/10/11 00:45:27;;;;;;;22.10;7.90;;;;;;;12.94;100.00;99094.19;4204437;34;20043;-70
2022/10/11 00:47:55;;;;;;;15.00;6.97;;;;;;;13.12;100.00;99094.81;4228633;33;20437;-70
2022/10/11 00:50:23;;;;;;;25.08;8.15;;;;;;;12.60;100.00;99062.13;4250279;33;20039;-74
2022/10/11 00:52:55;;;;;;;16.60;7.87;;;;;;;12.88;100.00;99079.03;4286394;33;20053;-70
2022/10/11 00:55:26;;;;;;;21.33;9.43;;;;;;;13.05;100.00;99085.03;4281918;33;20059;-70
2022/10/11 00:57:54;;;;;;;18.20;8.25;;;;;;;12.86;100.00;99092.78;4325362;33;20058;-69
2022/10/11 01:00:20;;;;;;;20.92;9.10;;;;;;;12.66;100.00;99039.47;4324814;33;20028;-70
2022/10/11 01:02:48;;;;;;;12.10;6.78;;;;;;;13.12;100.00;99089.41;4327583;33;20061;-69
2022/10/11 01:05:17;;;;;;;14.52;7.57;;;;;;;13.19;100.00;99087.25;4325858;33;20434;-69
2022/10/11 01:07:46;;;;;;;14.52;7.78;;;;;;;13.45;100.00;99093.59;4312789;33;20029;-69
2022/10/11 01:10:13;;;;;;;13.40;7.18;;;;;;;13.17;100.00;99086.69;4311700;33;20075;-73
2022/10/11 01:12:50;;;;;;;18.83;7.05;;;;;;;13.15;100.00;99088.88;4312416;33;20075;-68
2022/10/11 01:15:29;;;;;;;16.67;7.00;;;;;;;12.85;100.00;99042.53;4297235;33;20045;-71
2022/10/11 01:18:08;;;;;;;16.52;7.20;;;;;;;12.99;100.00;99067.19;4295529;33;20084;-74
2022/10/11 01:21:04;;;;;;;16.15;7.53;;;;;;;13.48;100.00;99078.69;4296416;33;20071;-69
2022/10/11 01:23:30;;;;;;;13.65;7.85;;;;;;;13.26;100.00;99085.13;4256318;33;20056;-73
2022/10/11 01:26:24;;;;;;;14.15;8.68;;;;;;;13.02;100.00;99036.91;4295260;33;20071;-70
2022/10/11 01:28:57;;;;;;;21.10;7.65;;;;;;;13.29;100.00;99083.75;4294320;33;20032;-68
2022/10/11 01:31:48;;;;;;;14.30;7.37;;;;;;;13.27;100.00;99065.09;4286493;33;20423;-69
2022/10/11 01:34:25;;;;;;;15.82;8.48;;;;;;;13.51;100.00;99075.44;4294137;33;20443;-69
2022/10/11 01:37:04;;;;;;;19.08;8.93;;;;;;;13.22;100.00;99078.59;4294250;33;20045;-74
2022/10/11 01:39:50;;;;;;;17.02;8.10;;;;;;;13.13;100.00;99047.75;4295890;33;20045;-69
2022/10/11 01:42:18;;;;;;;19.55;8.82;;;;;;;13.33;100.00;99085.69;4295983;33;20340;-69
2022/10/11 01:44:53;;;;;;;15.13;8.43;;;;;;;13.61;100.00;99086.31;4294802;33;20057;-70
2022/10/11 01:47:23;;;;;;;12.13;7.60;;;;;;;13.28;100.00;99077.53;4308008;33;20052;-70
2022/10/11 01:49:57;;;;;;;12.45;7.53;;;;;;;13.26;100.00;99079.72;4310185;33;20069;-70
2022/10/11 01:52:30;;;;;;;18.45;8.63;;;;;;;13.36;100.00;99085.16;4308350;33;20048;-73
2022/10/11 01:54:57;;;;;;;15.30;8.50;;;;;;;13.20;100.00;99042.91;4290293;33;20038;-71
2022/10/11 01:57:36;;;;;;;16.60;7.62;;;;;;;13.93;100.00;99077.13;4289031;33;20050;-70
2022/10/11 02:00:17;;;;;;;20.08;7.75;;;;;;;13.68;100.00;99037.34;4285602;33;20051;-74
2022/10/11 02:03:11;;;;;;;17.25;9.45;;;;;;;13.94;100.00;99081.44;4287064;33;20063;-70
2022/10/11 02:05:59;;;;;;;22.17;9.00;;;;;;;14.06;100.00;99087.41;4288864;33;20058;-75
2022/10/11 02:08:37;;;;;;;19.77;8.27;;;;;;;13.77;100.00;99085.25;4310259;33;20529;-70
2022/10/11 02:11:26;;;;;;;21.17;8.70;;;;;;;13.59;100.00;99077.63;4309803;33;20342;-72
2022/10/11 02:14:00;;;;;;;13.75;7.80;;;;;;;13.59;100.00;99073.06;4309984;33;20040;-70
2022/10/11 02:16:42;;;;;;;15.80;7.65;;;;;;;13.71;100.00;99051.13;4322876;33;20398;-69
2022/10/11 02:19:11;;;;;;;17.45;8.18;;;;;;;13.62;100.00;99071.69;4315780;33;20055;-70
2022/10/11 02:21:42;;;;;;;17.10;7.70;;;;;;;13.73;100.00;99084.13;4309796;33;20465;-69
2022/10/11 02:24:15;;;;;;;21.33;8.85;;;;;;;13.67;100.00;99052.75;4309940;33;20040;-69
2022/10/11 02:26:52;;;;;;;14.27;8.35;;;;;;;13.75;100.00;99087.41;4308472;33;20043;-70
2022/10/11 02:29:21;;;;;;;13.98;8.80;;;;;;;13.80;100.00;99084.69;4271185;33;20053;-70
2022/10/11 02:31:50;;;;;;;16.87;9.98;;;;;;;13.79;100.00;99066.81;4265080;33;20030;-69
2022/10/11 02:34:19;;;;;;;14.95;8.32;;;;;;;13.52;100.00;99050.84;4228863;33;20065;-74
2022/10/11 02:36:51;;;;;;;15.45;9.25;;;;;;;13.63;100.00;99084.13;4222488;34;20082;-69
2022/10/11 02:39:35;;;;;;;16.87;7.90;;;;;;;13.54;100.00;99053.28;4223194;33;20060;-71
2022/10/11 02:42:05;;;;;;;17.60;7.62;;;;;;;13.47;100.00;99083.28;4237590;33;20372;-74
2022/10/11 02:44:39;;;;;;;20.90;9.15;;;;;;;13.48;100.00;99084.09;4235352;33;20058;-70
2022/10/11 02:47:07;;;;;;;19.35;8.65;;;;;;;13.50;100.00;99090.88;4237515;33;20100;-71
2022/10/11 02:49:34;;;;;;;19.77;8.57;;;;;;;13.20;100.00;99053.72;4237208;33;20076;-70
2022/10/11 02:52:03;;;;;;;18.92;8.40;;;;;;;13.09;100.00;99026.66;4237243;33;20430;-74
2022/10/11 02:54:30;;;;;;;17.98;9.15;;;;;;;13.53;100.00;99103.03;4237366;33;20068;-70
2022/10/11 02:56:56;;;;;;;14.52;8.50;;;;;;;13.64;100.00;99099.28;4237804;33;20422;-70
2022/10/11 02:59:23;;;;;;;23.00;8.88;;;;;;;13.50;100.00;99106.28;4238427;33;20176;-70
2022/10/11 03:01:49;;;;;;;18.92;8.95;;;;;;;13.36;100.00;99062.72;4250958;33;20075;-70
2022/10/11 03:04:16;;;;;;;16.33;8.63;;;;;;;13.73;100.00;99111.19;4253300;33;20080;-74
2022/10/11 03:06:42;;;;;;;23.40;8.88;;;;;;;13.28;100.00;99072.13;4280765;33;20494;-70
2022/10/11 03:09:08;;;;;;;14.73;8.45;;;;;;;13.37;100.00;99086.78;4300800;33;20101;-70
2022/10/11 03:11:35;;;;;;;14.32;8.82;;;;;;;13.00;100.00;99068.81;4307118;33;20083;-70
2022/10/11 03:14:01;;;;;;;20.17;9.05;;;;;;;13.27;100.00;99059.69;4309444;33;20043;-70
2022/10/11 03:16:27;;;;;;;26.70;11.30;;;;;;;13.61;100.00;99097.12;4306325;33;20457;-70
2022/10/11 03:18:54;;;;;;;17.87;9.30;;;;;;;13.71;100.00;99110.66;4299499;33;20087;-70
2022/10/11 03:24:04;;;;;;;17.08;9.25;;;;;;;13.68;100.00;99113.91;4305629;33;20066;-73
2022/10/11 03:26:31;;;;;;;19.92;9.75;;;;;;;13.43;100.00;99118.19;4307513;33;20869;-69
2022/10/11 03:28:57;;;;;;;20.12;9.63;;;;;;;13.41;100.00;99120.31;4305122;33;20036;-70
2022/10/11 03:31:23;;;;;;;18.17;9.13;;;;;;;13.22;100.00;99089.41;4296248;33;20078;-70
2022/10/11 03:33:50;;;;;;;17.17;9.07;;;;;;;12.80;100.00;99076.81;4294371;33;20033;-70
2022/10/11 03:36:16;;;;;;;19.17;9.77;;;;;;;13.16;100.00;99118.34;4292501;33;20065;-73
2022/10/11 03:38:43;;;;;;;24.58;10.60;;;;;;;13.02;100.00;99131.50;4308264;33;20068;-70
2022/10/11 03:41:09;;;;;;;103.47;33.38;;;;;;;13.18;100.00;99131.56;4305548;33;20062;-69
2022/10/11 03:43:35;;;;;;;24.00;11.98;;;;;;;13.21;100.00;99120.22;4309097;33;20072;-69
2022/10/11 03:46:02;;;;;;;23.33;10.93;;;;;;;12.83;100.00;99092.50;4307604;33;20041;-70
2022/10/11 03:48:28;;;;;;;68.00;20.33;;;;;;;13.14;100.00;99131.28;4308103;33;20046;-72
2022/10/11 03:50:55;;;;;;;28.33;10.30;;;;;;;12.99;100.00;99094.19;4307524;33;20091;-69
2022/10/11 03:53:21;;;;;;;27.02;11.93;;;;;;;12.79;100.00;99108.41;4293889;33;20049;-70
2022/10/11 03:55:52;;;;;;;24.00;11.73;;;;;;;12.88;100.00;99122.25;4307231;33;20049;-70
2022/10/11 03:58:18;;;;;;;21.92;11.27;;;;;;;12.63;100.00;99083.22;4281257;33;20070;-73
2022/10/11 04:00:45;;;;;;;47.13;18.62;;;;;;;13.09;100.00;99123.16;4285320;33;20075;-70
2022/10/11 04:03:12;;;;;;;31.15;14.15;;;;;;;13.20;100.00;99172.69;4291027;33;20191;-69
2022/10/11 04:05:38;;;;;;;37.65;13.88;;;;;;;12.66;100.00;99131.31;4294298;33;20025;-70
2022/10/11 04:08:05;;;;;;;25.30;10.88;;;;;;;12.83;100.00;99120.34;4296305;33;20063;-70
2022/10/11 04:10:31;;;;;;;19.08;9.82;;;;;;;13.08;100.00;99157.50;4255272;33;20046;-74
2022/10/11 04:12:57;;;;;;;23.27;11.43;;;;;;;12.85;100.00;99133.59;4251133;33;20034;-70
2022/10/11 04:15:24;;;;;;;18.15;9.88;;;;;;;12.90;100.00;99137.13;4253289;33;20058;-71
2022/10/11 04:17:50;;;;;;;28.15;12.35;;;;;;;13.25;100.00;99186.22;4255658;33;20087;-70
2022/10/11 04:20:17;;;;;;;20.92;9.70;;;;;;;13.08;100.00;99167.47;4265962;33;20041;-69
2022/10/11 04:22:43;;;;;;;42.08;12.35;;;;;;;13.09;100.00;99140.19;4256789;33;20037;-73
2022/10/11 04:25:09;;;;;;;52.90;17.33;;;;;;;13.00;100.00;99136.38;4252914;33;20420;-71
2022/10/11 04:27:36;;;;;;;32.58;10.93;;;;;;;13.04;100.00;99188.81;4269830;33;20179;-70
2022/10/11 04:30:03;;;;;;;21.52;11.40;;;;;;;13.02;100.00;99188.28;4279153;33;20063;-70
2022/10/11 04:32:29;;;;;;;34.53;11.75;;;;;;;12.57;100.00;99164.47;4273801;33;20038;-70
2022/10/11 04:34:56;;;;;;;28.35;12.50;;;;;;;12.74;100.00;99143.50;4276646;33;20073;-71
2022/10/11 04:37:22;;;;;;;28.08;10.98;;;;;;;12.59;100.00;99187.47;4298141;33;20067;-70
2022/10/11 04:39:48;;;;;;;22.05;10.40;;;;;;;12.76;100.00;99194.59;4308184;33;20044;-70
2022/10/11 04:42:15;;;;;;;20.02;10.13;;;;;;;12.42;100.00;99162.47;4291726;33;20116;-70
2022/10/11 04:44:41;;;;;;;17.15;10.80;;;;;;;12.15;100.00;99120.16;4274500;33;20050;-75
2022/10/11 04:47:18;;;;;;;16.67;8.30;;;;;;;13.03;100.00;99205.28;4278317;33;20061;-70
2022/10/11 04:49:44;;;;;;;17.45;10.27;;;;;;;12.92;100.00;99193.59;4277657;33;20054;-71
2022/10/11 04:52:10;;;;;;;19.12;10.88;;;;;;;13.05;100.00;99203.97;4252475;33;20094;-70
2022/10/11 04:54:37;;;;;;;22.65;9.50;;;;;;;12.89;100.00;99215.75;4267092;33;20042;-70
2022/10/11 04:57:03;;;;;;;18.25;10.52;;;;;;;12.85;100.00;99214.66;4264713;33;20038;-70
2022/10/11 04:59:30;;;;;;;19.50;10.60;;;;;;;12.97;100.00;99201.78;4255659;33;20055;-71
2022/10/11 05:01:56;;;;;;;16.75;9.77;;;;;;;13.03;100.00;99206.09;4252991;33;20542;-70
2022/10/11 05:04:22;;;;;;;20.17;10.65;;;;;;;13.31;100.00;99206.81;4263499;33;20062;-69
2022/10/11 05:06:49;;;;;;;16.05;8.65;;;;;;;12.61;100.00;99134.00;4265562;33;20034;-75
2022/10/11 05:09:15;;;;;;;18.58;10.00;;;;;;;12.75;100.00;99206.47;4266745;33;20057;-70
2022/10/11 05:11:41;;;;;;;18.98;10.85;;;;;;;13.02;100.00;99209.91;4265453;33;20063;-70
2022/10/11 05:14:08;;;;;;;20.83;10.10;;;;;;;12.57;100.00;99219.28;4263758;33;20038;-70
2022/10/11 05:16:34;;;;;;;16.70;11.32;;;;;;;12.83;100.00;99227.62;4267051;33;20030;-69
2022/10/11 05:19:00;;;;;;;17.45;10.50;;;;;;;12.91;100.00;99221.72;4264042;33;20059;-70
2022/10/11 05:21:29;;;;;;;24.25;10.70;;;;;;;13.17;100.00;99238.91;4268776;33;20131;-70
2022/10/11 05:23:56;;;;;;;25.20;10.98;;;;;;;12.73;100.00;99201.31;4289131;33;20176;-70
2022/10/11 05:26:26;;;;;;;26.08;10.55;;;;;;;12.80;100.00;99241.66;4297960;33;20160;-70
2022/10/11 05:28:58;;;;;;;19.65;10.27;;;;;;;12.96;100.00;99256.88;4309545;33;20037;-75
2022/10/11 05:31:25;;;;;;;17.62;10.00;;;;;;;12.51;100.00;99252.75;4289210;33;20164;-70
2022/10/11 05:33:51;;;;;;;17.98;9.35;;;;;;;12.96;100.00;99248.78;4280503;33;20026;-69
2022/10/11 05:36:18;;;;;;;21.00;10.48;;;;;;;12.88;100.00;99219.53;4283870;33;20383;-69
2022/10/11 05:38:44;;;;;;;17.90;10.50;;;;;;;12.95;100.00;99251.75;4287760;33;20531;-71
2022/10/11 05:41:12;;;;;;;21.62;9.77;;;;;;;13.01;100.00;99256.91;4280898;33;20055;-71
2022/10/11 05:43:40;;;;;;;23.80;10.50;;;;;;;13.27;100.00;99271.44;4281632;33;20083;-69
2022/10/11 05:46:06;;;;;;;23.55;11.05;;;;;;;13.38;100.00;99266.91;4292714;33;20049;-70
2022/10/11 05:48:33;;;;;;;20.67;10.98;;;;;;;13.42;100.00;99234.75;4296098;33;20028;-70
2022/10/11 05:51:04;;;;;;;19.87;10.40;;;;;;;13.37;100.00;99230.13;4294928;33;20060;-70
2022/10/11 05:53:32;;;;;;;23.25;10.45;;;;;;;13.42;100.00;99229.34;4293017;33;20037;-70
2022/10/11 05:55:58;;;;;;;19.23;11.10;;;;;;;13.36;100.00;99252.81;4301295;33;20059;-69
2022/10/11 05:58:25;;;;;;;17.00;9.85;;;;;;;13.66;100.00;99297.34;4292676;33;20046;-71
2022/10/11 06:00:51;;;;;;;23.23;9.80;;;;;;;13.41;100.00;99312.34;4291635;33;20140;-71
2022/10/11 06:03:19;;;;;;;20.58;10.05;;;;;;;13.54;100.00;99310.25;4304159;33;20728;-75
2022/10/11 06:05:46;;;;;;;22.23;9.82;;;;;;;13.20;100.00;99287.06;4307114;33;20052;-71
2022/10/11 06:08:12;;;;;;;16.75;10.38;;;;;;;13.56;100.00;99313.50;4306864;33;20398;-72
2022/10/11 06:10:39;;;;;;;14.23;9.57;;;;;;;13.93;100.00;99320.75;4306633;33;20049;-70
2022/10/11 06:13:06;;;;;;;23.95;11.02;;;;;;;13.74;100.00;99323.91;4307386;33;20032;-70
2022/10/11 06:15:32;;;;;;;22.60;10.70;;;;;;;13.96;100.00;99320.19;4299876;33;20414;-70
2022/10/11 06:18:00;;;;;;;17.87;9.95;;;;;;;14.02;100.00;99329.97;4307479;33;20110;-70
2022/10/11 06:20:32;;;;;;;18.10;10.23;;;;;;;13.50;100.00;99301.88;4307237;33;20435;-70
2022/10/11 06:22:58;;;;;;;18.45;9.85;;;;;;;13.69;100.00;99299.53;4309985;33;20087;-71
2022/10/11 06:25:29;;;;;;;15.65;10.13;;;;;;;13.66;100.00;99340.63;4308624;33;20068;-70
2022/10/11 06:28:00;;;;;;;20.23;11.02;;;;;;;13.78;100.00;99357.47;4298693;33;20055;-70
2022/10/11 06:30:33;;;;;;;22.83;10.40;;;;;;;13.52;100.00;99325.94;4280995;33;20363;-68
2022/10/11 06:33:03;;;;;;;23.10;9.88;;;;;;;13.77;100.00;99372.09;4291999;33;20040;-75
2022/10/11 06:35:33;;;;;;;25.33;10.55;;;;;;;13.61;100.00;99362.25;4298694;33;20088;-68
2022/10/11 06:38:02;;;;;;;14.30;9.57;;;;;;;13.84;100.00;99377.25;4299376;33;20062;-70
2022/10/11 06:40:33;;;;;;;23.55;9.43;;;;;;;13.69;100.00;99386.13;4298779;33;20382;-69
2022/10/11 06:43:03;;;;;;;20.55;9.05;;;;;;;13.52;100.00;99347.59;4272417;33;20067;-70
2022/10/11 06:45:38;;;;;;;15.75;8.60;;;;;;;13.81;100.00;99377.78;4255019;33;20038;-69
2022/10/11 06:48:08;;;;;;;16.62;9.00;;;;;;;13.97;100.00;99400.34;4253003;33;20113;-70
2022/10/11 06:50:40;;;;;;;19.95;10.18;;;;;;;14.06;100.00;99393.34;4259524;33;20042;-70
2022/10/11 06:53:10;;;;;;;18.52;9.90;;;;;;;14.01;100.00;99393.31;4264937;33;20061;-70
2022/10/11 06:55:47;;;;;;;15.63;9.27;;;;;;;13.94;100.00;99382.72;4267577;33;20075;-69
2022/10/11 06:58:20;;;;;;;21.52;9.90;;;;;;;14.03;100.00;99396.56;4239299;33;20377;-70
2022/10/11 07:00:47;;;;;;;14.87;9.82;;;;;;;13.91;100.00;99387.84;4228798;33;20060;-69
2022/10/11 07:03:16;;;;;;;22.73;9.90;;;;;;;14.11;100.00;99398.78;4220628;33;20151;-70
2022/10/11 07:05:46;;;;;;;23.90;9.40;;;;;;;13.94;100.00;99366.47;4197251;34;20442;-67
2022/10/11 07:08:13;;;;;;;17.83;10.13;;;;;;;14.08;100.00;99404.72;4209989;34;20390;-70
2022/10/11 07:10:39;;;;;;;18.77;9.85;;;;;;;13.83;100.00;99369.41;4191306;34;20065;-69
2022/10/11 07:13:09;;;;;;;13.93;9.73;;;;;;;13.98;100.00;99410.09;4199043;34;20452;-70
2022/10/11 07:15:43;;;;;;;17.42;9.93;;;;;;;14.08;100.00;99420.97;4209573;34;20423;-69
2022/10/11 07:18:13;;;;;;;16.55;10.00;;;;;;;14.09;100.00;99411.78;4214662;33;20055;-69
2022/10/11 07:20:42;;;;;;;16.15;9.57;;;;;;;14.07;100.00;99424.78;4208620;34;20043;-69
2022/10/11 07:23:13;;;;;;;18.12;9.20;;;;;;;14.20;100.00;99422.66;4205606;34;20039;-71
2022/10/11 07:25:46;;;;;;;18.27;9.98;;;;;;;14.10;100.00;99385.50;4184157;34;20057;-70
2022/10/11 07:28:17;;;;;;;14.15;8.73;;;;;;;14.40;100.00;99438.19;4186965;34;20061;-71
2022/10/11 07:30:49;;;;;;;18.37;9.13;;;;;;;14.57;100.00;99438.78;4195474;34;20083;-69
2022/10/11 07:33:16;;;;;;;21.23;9.65;;;;;;;14.51;100.00;99439.84;4203271;34;20039;-70
2022/10/11 07:35:42;;;;;;;15.15;9.00;;;;;;;14.45;100.00;99447.13;4193561;34;20057;-69
2022/10/11 07:38:11;;;;;;;15.07;7.87;;;;;;;14.45;100.00;99457.97;4193839;34;20043;-77
2022/10/11 07:40:42;;;;;;;19.98;9.45;;;;;;;14.43;100.00;99421.41;4195749;34;20162;-70
2022/10/11 07:43:09;;;;;;;;;;;;;;;14.63;100.00;99458.59;4228392;33;20047;-73
2022/10/11 07:45:38;;;;;;;18.55;9.75;;;;;;;14.51;100.00;99467.75;4221738;33;19956;-71
2022/10/11 07:48:05;;;;;;;15.32;8.75;;;;;;;14.45;100.00;99476.13;4231874;33;20112;-71
2022/10/11 07:50:33;;;;;;;15.05;7.93;;;;;;;14.23;100.00;99432.94;4251346;33;20052;-72
2022/10/11 07:52:59;;;;;;;21.20;9.68;;;;;;;14.39;100.00;99472.59;4253644;33;20085;-71
2022/10/11 07:55:26;;;;;;;12.80;8.02;;;;;;;14.13;100.00;99439.13;4258674;33;20033;-69
2022/10/11 07:57:56;;;;;;;19.37;9.15;;;;;;;14.20;100.00;99438.88;4269028;33;20207;-69
2022/10/11 08:00:23;;;;;;;15.98;8.13;;;;;;;14.28;100.00;99485.25;4277486;33;20034;-73
2022/10/11 08:02:49;;;;;;;12.55;6.62;;;;;;;14.05;100.00;99491.88;4273785;33;20527;-70
2022/10/11 08:05:16;;;;;;;12.57;7.35;;;;;;;14.27;100.00;99482.81;4276276;33;20186;-70
2022/10/11 08:07:43;;;;;;;16.52;8.13;;;;;;;14.21;100.00;99478.44;4293218;33;20049;-71
2022/10/11 08:10:09;;;;;;;10.63;6.65;;;;;;;14.01;100.00;99495.38;4293504;33;20932;-73
2022/10/11 08:12:36;;;;;;;12.13;7.78;;;;;;;14.15;100.00;99499.25;4278383;33;20026;-76
2022/10/11 08:15:02;;;;;;;11.85;6.50;;;;;;;14.10;100.00;99488.41;4278964;33;20038;-70
2022/10/11 08:17:29;;;;;;;7.05;4.85;;;;;;;14.05;100.00;99502.72;4279122;33;20601;-70
2022/10/11 08:19:56;;;;;;;7.12;5.10;;;;;;;13.98;100.00;99504.84;4271455;33;20053;-70
2022/10/11 08:22:23;;;;;;;10.15;5.30;;;;;;;13.75;100.00;99471.69;4275845;33;20407;-77
2022/10/11 08:24:49;;;;;;;18.05;5.80;;;;;;;14.10;100.00;99516.28;4277848;33;20037;-71
2022/10/11 08:27:16;;;;;;;11.88;5.70;;;;;;;14.33;100.00;99504.25;4281597;33;20786;-70
2022/10/11 08:29:42;;;;;;;11.85;5.55;;;;;;;14.51;100.00;99500.25;4280273;33;20072;-69
2022/10/11 08:32:10;;;;;;;9.48;4.90;;;;;;;14.38;100.00;99462.81;4281522;33;20054;-72
2022/10/11 08:34:37;;;;;;;15.35;4.97;;;;;;;14.27;100.00;99458.44;4280933;33;20041;-76
2022/10/11 08:37:03;;;;;;;12.75;5.10;;;;;;;14.79;100.00;99503.66;4278349;33;20045;-68
2022/10/11 08:39:30;;;;;;;4.95;4.15;;;;;;;14.98;100.00;99508.59;4279277;33;20114;-70
2022/10/11 08:41:56;;;;;;;9.57;4.03;;;;;;;14.52;100.00;99477.50;4268859;33;20030;-70
2022/10/11 08:44:32;;;;;;;6.82;4.40;;;;;;;14.52;100.00;99522.78;4290453;33;20040;-69
2022/10/11 08:47:05;;;;;;;14.60;4.90;;;;;;;14.41;100.00;99526.47;4295661;33;20481;-70
2022/10/11 08:49:32;;;;;;;7.82;3.75;;;;;;;14.49;100.00;99524.09;4293348;33;20087;-72
2022/10/11 08:52:03;;;;;;;8.68;3.83;;;;;;;14.63;100.00;99523.63;4293412;33;20135;-70
2022/10/11 08:54:54;;;;;;;16.15;3.67;;;;;;;14.34;100.00;99521.31;4293820;33;20033;-74
2022/10/11 08:57:29;;;;;;;5.90;3.45;;;;;;;14.96;100.00;99518.91;4291096;33;20045;-68
2022/10/11 08:59:58;;;;;;;7.82;3.15;;;;;;;14.75;100.00;99483.59;4293880;33;20036;-75
2022/10/11 09:02:34;;;;;;;3.97;3.17;;;;;;;14.94;100.00;99523.78;4292563;33;20071;-68
2022/10/11 09:05:02;;;;;;;7.10;2.78;;;;;;;14.88;100.00;99521.03;4293199;33;20029;-68
2022/10/11 09:07:39;;;;;;;3.78;2.72;;;;;;;14.77;100.00;99535.63;4281313;33;20503;-69
2022/10/11 09:10:27;;;;;;;8.60;3.17;;;;;;;14.66;100.00;99496.00;4278807;33;20067;-70
2022/10/11 09:13:00;;;;;;;7.35;2.85;;;;;;;15.16;100.00;99537.94;4278253;33;20041;-70
2022/10/11 09:15:47;;;;;;;;;;;;;;;15.09;100.00;99537.38;4279087;33;20049;-70
2022/10/11 09:18:51;;;;;;;13.32;3.03;;;;;;;15.09;100.00;99542.78;4292096;33;20221;-74
2022/10/11 09:21:26;;;;;;;11.27;3.33;;;;;;;15.33;100.00;99547.72;4290349;33;20543;-75
2022/10/11 09:23:56;;;;;;;8.57;2.83;;;;;;;15.01;100.00;99489.06;4281186;33;20064;-70
2022/10/11 09:26:30;;;;;;;3.62;2.10;;;;;;;15.12;100.00;99504.28;4279030;33;20038;-69
2022/10/11 09:29:09;;;;;;;7.37;2.37;;;;;;;15.24;100.00;99555.59;4266399;33;20390;-74
2022/10/11 09:31:35;;;;;;;2.25;1.90;;;;;;;15.02;100.00;99526.78;4279683;33;20063;-69
2022/10/11 09:34:10;;;;;;;4.95;2.33;;;;;;;15.39;100.00;99552.09;4277980;33;20353;-69
2022/10/11 09:36:51;;;;;;;8.15;2.28;;;;;;;15.05;100.00;99560.69;4286929;33;20037;-69
2022/10/11 09:39:33;;;;;;;8.27;2.73;;;;;;;15.03;100.00;99568.25;4299311;33;20442;-70
2022/10/11 09:42:06;;;;;;;5.57;2.30;;;;;;;15.08;100.00;99552.81;4278609;33;20068;-70
2022/10/11 09:44:36;;;;;;;3.50;2.25;;;;;;;15.19;100.00;99548.25;4278997;33;20453;-75
2022/10/11 09:47:04;;;;;;;4.12;2.05;;;;;;;15.25;100.00;99573.47;4257952;33;20068;-68
2022/10/11 09:49:36;;;;;;;5.07;1.92;;;;;;;15.10;100.00;99571.53;4258953;33;20056;-70
2022/10/11 09:52:09;;;;;;;6.15;2.20;;;;;;;14.77;100.00;99530.22;4265583;33;20042;-71
2022/10/11 09:54:38;;;;;;;5.60;2.05;;;;;;;15.24;100.00;99561.81;4264490;33;20056;-70
2022/10/11 09:57:05;;;;;;;8.27;2.40;;;;;;;15.37;100.00;99543.41;4262168;33;20042;-70
2022/10/11 09:59:34;;;;;;;7.47;3.40;;;;;;;15.37;100.00;99532.56;4270666;33;20123;-70
2022/10/11 10:02:21;;;;;;;5.45;1.90;;;;;;;15.22;100.00;99542.28;4268825;33;20456;-70
2022/10/11 10:05:20;;;;;;;6.97;2.20;;;;;;;15.32;100.00;99524.41;4278554;33;20161;-69
2022/10/11 10:08:08;;;;;;;12.82;2.20;;;;;;;15.29;100.00;99562.94;4263527;33;20423;-72
2022/10/11 10:10:50;;;;;;;4.43;1.90;;;;;;;15.70;100.00;99568.41;4266169;33;20066;-71
2022/10/11 10:13:35;;;;;;;9.15;1.95;;;;;;;15.71;100.00;99565.41;4274619;33;20094;-74
2022/10/11 10:16:04;;;;;;;19.30;2.97;;;;;;;15.53;100.00;99574.91;4252302;33;20050;-69
2022/10/11 10:18:36;;;;;;;7.12;2.78;;;;;;;15.18;100.00;99507.84;4250461;33;20042;-68
2022/10/11 10:21:12;;;;;;;7.57;2.17;;;;;;;15.60;100.00;99544.78;4251854;33;20355;-68
2022/10/11 10:23:38;;;;;;;13.18;3.40;;;;;;;15.68;100.00;99576.00;4259532;33;20109;-69
2022/10/11 10:26:19;;;;;;;5.87;2.58;;;;;;;15.62;100.00;99557.00;4283170;33;20050;-69
2022/10/11 10:29:03;;;;;;;6.20;2.25;;;;;;;15.94;100.00;99574.16;4263956;33;20360;-70
2022/10/11 10:31:38;;;;;;;4.35;2.08;;;;;;;15.91;100.00;99580.94;4275794;33;20078;-68
2022/10/11 10:34:13;;;;;;;8.15;2.03;;;;;;;15.48;100.00;99545.06;4278643;33;20055;-69
2022/10/11 10:36:44;;;;;;;4.35;1.92;;;;;;;15.57;100.00;99537.19;4238981;33;20046;-75
2022/10/11 10:39:28;;;;;;;8.75;2.15;;;;;;;15.62;100.00;99546.16;4237923;33;20047;-69
2022/10/11 10:41:56;;;;;;;6.28;2.10;;;;;;;15.78;100.00;99543.47;4235744;33;20160;-68
2022/10/11 10:44:22;;;;;;;14.07;2.00;;;;;;;16.16;100.00;99588.28;4237931;33;20047;-70
2022/10/11 10:47:24;;;;;;;6.18;1.75;;;;;;;16.31;100.00;99590.16;4230332;33;20089;-70
2022/10/11 10:50:02;;;;;;;4.60;1.70;;;;;;;16.07;100.00;99545.63;4222434;33;20050;-68
2022/10/11 10:52:47;;;;;;;8.75;2.20;;;;;;;15.93;100.00;99600.50;4222692;34;20131;-69
2022/10/11 10:55:23;;;;;;;4.97;1.40;;;;;;;16.29;100.00;99597.78;4222055;34;20043;-69
2022/10/11 10:57:52;;;;;;;8.52;2.20;;;;;;;16.49;100.00;99566.19;4235550;33;20427;-70
2022/10/11 11:00:20;;;;;;;4.43;1.65;;;;;;;17.35;100.00;99586.00;4216756;33;20119;-69
2022/10/11 11:03:04;;;;;;;6.75;1.92;;;;;;;17.64;96.79;99588.00;4219652;33;20038;-69
2022/10/11 11:05:56;;;;;;;11.82;1.98;;;;;;;18.18;97.96;99590.91;4246740;33;20047;-77
2022/10/11 11:08:28;;;;;;;10.10;1.92;;;;;;;18.67;83.78;99603.50;4273124;33;20052;-68
2022/10/11 11:11:16;;;;;;;7.43;1.52;;;;;;;18.56;79.55;99601.97;4270510;33;20050;-69
2022/10/11 11:14:26;;;;;;;4.18;1.80;;;;;;;18.27;82.42;99600.09;4262078;33;20071;-71
2022/10/11 11:17:26;;;;;;;6.68;1.83;;;;;;;17.69;83.96;99607.03;4247738;33;20113;-67
2022/10/11 11:20:06;;;;;;;8.13;1.60;;;;;;;17.60;83.67;99608.75;4221510;34;20027;-69
2022/10/11 11:22:48;;;;;;;3.90;1.40;;;;;;;17.02;85.70;99572.03;4234069;33;20090;-69
2022/10/11 11:25:23;;;;;;;6.05;1.67;;;;;;;16.57;89.33;99576.50;4236499;33;20034;-68
2022/10/11 11:28:36;;;;;;;7.18;1.77;;;;;;;16.85;89.60;99612.34;4231253;33;20034;-68
2022/10/11 11:31:21;;;;;;;4.68;1.60;;;;;;;16.42;92.51;99606.44;4216037;34;20416;-74
2022/10/11 11:34:03;;;;;;;4.43;1.75;;;;;;;16.80;91.67;99623.19;4222017;34;20543;-70
2022/10/11 11:36:32;;;;;;;5.30;1.42;;;;;;;16.82;85.50;99621.03;4214270;34;20057;-71
2022/10/11 11:39:03;;;;;;;5.90;1.65;;;;;;;16.81;82.84;99616.69;4217382;33;20073;-70
2022/10/11 11:41:36;;;;;;;2.17;1.77;;;;;;;16.62;85.69;99584.63;4222739;33;20176;-76